Time;durP1;ratioP1;P1;durP2;ratioP2;P2;SDS_P1;SDS_P2;PMS_P1;PMS_P2;Temp;Humidity;BMP_temperature;BMP_pressure;BME280_temperature;BME280_humidity;BME280_pressure;Samples;Min_cycle;Max_cycle;Signal;HPM_P1;HPM_P2
2022/06/04 00:00:42;;;;;;;3.65;0.15;;;14.40;99.90;;;;;;5041380;28;20155;-78
2022/06/04 00:03:08;;;;;;;1.75;0.40;;;14.30;99.90;;;;;;5037374;28;20511;-78
2022/06/04 00:05:36;;;;;;;3.63;0.17;;;14.30;99.90;;;;;;5037974;28;20022;-77
2022/06/04 00:08:03;;;;;;;0.85;0.52;;;14.30;99.90;;;;;;5033861;28;20052;-77
2022/06/04 00:16:04;;;;;;;2.72;0.20;;;14.20;99.90;;;;;;5037479;28;20034;-78
2022/06/04 00:18:30;;;;;;;1.95;0.20;;;14.20;99.90;;;;;;5040624;28;20391;-78
2022/06/04 00:20:56;;;;;;;0.85;0.40;;;14.10;99.90;;;;;;5038380;28;20108;-78
2022/06/04 00:23:22;;;;;;;2.40;0.30;;;14.10;99.90;;;;;;5038859;28;20033;-78
2022/06/04 00:25:52;;;;;;;0.85;0.10;;;14.10;99.90;;;;;;5039939;28;20095;-78
2022/06/04 00:28:20;;;;;;;2.50;0.20;;;14.10;99.90;;;;;;5038414;28;20085;-78
2022/06/04 00:30:45;;;;;;;1.47;0.40;;;14.10;99.90;;;;;;5037836;28;20044;-78
2022/06/04 00:33:12;;;;;;;0.65;0.20;;;14.10;99.90;;;;;;5036035;28;20021;-78
2022/06/04 00:35:38;;;;;;;1.80;0.43;;;14.00;99.90;;;;;;5039586;28;20073;-78
2022/06/04 00:38:05;;;;;;;5.38;0.30;;;14.00;99.90;;;;;;5039754;28;20021;-78
2022/06/04 00:40:55;;;;;;;2.60;0.30;;;13.90;99.90;;;;;;5039563;28;20024;-78
2022/06/04 00:43:22;;;;;;;2.38;0.65;;;13.90;99.90;;;;;;5037711;28;20047;-78
2022/06/04 00:46:35;;;;;;;2.67;0.43;;;13.90;99.90;;;;;;5033643;28;20029;-76
2022/06/04 00:49:01;;;;;;;0.98;0.28;;;13.90;99.90;;;;;;5032801;28;20080;-76
2022/06/04 00:51:27;;;;;;;2.15;0.30;;;13.80;99.90;;;;;;5034135;28;20501;-77
2022/06/04 00:53:55;;;;;;;1.63;0.25;;;13.70;99.90;;;;;;5032999;28;20033;-77
2022/06/04 00:56:32;;;;;;;3.53;0.52;;;13.70;99.90;;;;;;5034050;28;20021;-77
2022/06/04 00:59:27;;;;;;;0.73;0.25;;;13.60;99.90;;;;;;5032907;28;20404;-78
2022/06/04 01:02:11;;;;;;;1.52;0.25;;;13.70;99.90;;;;;;5034913;28;20020;-76
2022/06/04 01:05:06;;;;;;;2.83;0.30;;;13.60;99.90;;;;;;5034389;28;20025;-76
2022/06/04 01:07:37;;;;;;;1.75;0.40;;;13.60;99.90;;;;;;5028209;28;20038;-76
2022/06/04 01:10:40;;;;;;;3.40;0.35;;;13.70;99.90;;;;;;5033713;28;20033;-76
2022/06/04 01:13:44;;;;;;;2.15;0.22;;;13.50;99.90;;;;;;5017651;28;20033;-75
2022/06/04 01:16:37;;;;;;;1.50;0.82;;;13.50;99.90;;;;;;5033872;28;20113;-75
2022/06/04 01:19:24;;;;;;;0.73;0.57;;;13.50;99.90;;;;;;5033482;28;20024;-74
2022/06/04 01:22:22;;;;;;;0.38;0.28;;;13.50;99.90;;;;;;5033817;28;20587;-76
2022/06/04 01:25:11;;;;;;;2.95;0.68;;;13.50;99.90;;;;;;5011524;28;20389;-78
2022/06/04 01:27:40;;;;;;;2.58;0.73;;;13.40;99.90;;;;;;5033662;28;20036;-78
2022/06/04 01:30:22;;;;;;;3.10;1.05;;;13.40;99.90;;;;;;5046775;23;20086;-77
2022/06/04 01:32:56;;;;;;;6.57;0.75;;;13.40;99.90;;;;;;5053491;28;20013;-76
2022/06/04 01:35:28;;;;;;;2.10;0.52;;;13.40;99.90;;;;;;5053225;28;20074;-76
2022/06/04 01:37:56;;;;;;;2.47;0.93;;;13.40;99.90;;;;;;5053510;28;20017;-76
2022/06/04 01:43:24;;;;;;;2.58;0.73;;;13.30;99.90;;;;;;5054028;28;20081;-77
2022/06/04 01:45:51;;;;;;;;;;;13.30;99.90;;;;;;5052362;28;20048;-76
2022/06/04 01:48:19;;;;;;;4.07;0.98;;;13.30;99.90;;;;;;5053252;28;20328;-77
2022/06/04 01:50:50;;;;;;;6.35;1.13;;;13.30;99.90;;;;;;5053398;28;20044;-77
2022/06/04 01:53:18;;;;;;;1.70;1.10;;;13.30;99.90;;;;;;5053401;28;20037;-77
2022/06/04 01:55:54;;;;;;;6.15;0.70;;;13.30;99.90;;;;;;5052980;28;20464;-77
2022/06/04 01:58:30;;;;;;;1.08;0.68;;;13.20;99.90;;;;;;5051865;28;20017;-76
2022/06/04 02:01:10;;;;;;;4.90;1.52;;;13.10;99.90;;;;;;5053797;28;20028;-77
2022/06/04 02:03:40;;;;;;;3.35;0.95;;;13.20;99.90;;;;;;5053692;28;20025;-77
2022/06/04 02:06:11;;;;;;;4.78;1.65;;;13.10;99.90;;;;;;5053135;28;20369;-77
2022/06/04 02:08:52;;;;;;;2.40;1.05;;;13.10;99.90;;;;;;5053204;28;20025;-77
2022/06/04 02:11:20;;;;;;;4.90;0.70;;;13.10;99.90;;;;;;5053773;28;20025;-77
2022/06/04 02:13:50;;;;;;;1.92;1.33;;;13.10;99.90;;;;;;5053600;28;20075;-77
2022/06/04 02:16:35;;;;;;;4.18;1.17;;;13.00;99.90;;;;;;5051634;28;20025;-77
2022/06/04 02:19:01;;;;;;;6.93;1.13;;;13.10;99.90;;;;;;5053092;28;20017;-77
2022/06/04 02:21:28;;;;;;;3.55;1.45;;;13.00;99.90;;;;;;5053223;28;20585;-77
2022/06/04 02:23:55;;;;;;;3.92;1.50;;;13.10;99.90;;;;;;5053066;28;20021;-77
2022/06/04 02:26:22;;;;;;;1.27;0.68;;;13.10;99.90;;;;;;5052757;28;20395;-77
2022/06/04 02:28:47;;;;;;;5.60;1.90;;;13.00;99.90;;;;;;5052869;28;20050;-77
2022/06/04 02:31:33;;;;;;;2.10;1.40;;;13.00;99.90;;;;;;5052919;28;20095;-77
2022/06/04 02:34:32;;;;;;;2.78;0.88;;;13.00;99.90;;;;;;5057162;28;20028;-77
2022/06/04 02:37:24;;;;;;;6.13;0.75;;;12.90;99.90;;;;;;5055586;28;20031;-77
2022/06/04 02:39:49;;;;;;;3.40;1.02;;;12.90;99.90;;;;;;5060695;28;20029;-76
2022/06/04 02:42:25;;;;;;;3.80;0.63;;;12.90;99.90;;;;;;5056791;28;20479;-74
2022/06/04 02:44:51;;;;;;;2.90;0.63;;;12.80;99.90;;;;;;5056556;28;20021;-76
2022/06/04 02:47:31;;;;;;;3.83;1.13;;;12.90;99.90;;;;;;5054990;28;20052;-74
2022/06/04 02:50:02;;;;;;;1.98;1.15;;;12.80;99.90;;;;;;5056662;28;20124;-77
2022/06/04 02:52:32;;;;;;;4.25;0.75;;;12.90;99.90;;;;;;5056622;28;20487;-77
2022/06/04 02:55:08;;;;;;;2.78;1.10;;;12.80;99.90;;;;;;5056062;28;20388;-77
2022/06/04 02:57:39;;;;;;;0.93;0.65;;;12.80;99.90;;;;;;5055087;28;20025;-77
2022/06/04 03:00:06;;;;;;;1.55;0.68;;;12.80;99.90;;;;;;5056427;28;20093;-76
2022/06/04 03:02:34;;;;;;;4.25;1.33;;;12.80;99.90;;;;;;5054938;28;20480;-76
2022/06/04 03:05:08;;;;;;;1.67;1.08;;;12.80;99.90;;;;;;5054670;28;20046;-76
2022/06/04 03:07:33;;;;;;;5.47;1.08;;;12.70;99.90;;;;;;5054791;28;20021;-77
2022/06/04 03:10:05;;;;;;;8.48;1.40;;;12.70;99.90;;;;;;5056089;28;20419;-77
2022/06/04 03:12:31;;;;;;;3.58;1.13;;;12.70;99.90;;;;;;5056192;28;20107;-77
2022/06/04 03:14:56;;;;;;;5.85;1.65;;;12.70;99.90;;;;;;5054605;28;20115;-77
2022/06/04 03:17:22;;;;;;;3.88;1.02;;;12.70;99.90;;;;;;5056625;28;20475;-76
2022/06/04 03:19:47;;;;;;;3.78;1.35;;;12.60;99.90;;;;;;5054499;28;20487;-76
2022/06/04 03:22:13;;;;;;;6.30;1.27;;;12.60;99.90;;;;;;5055934;28;20039;-76
2022/06/04 03:24:38;;;;;;;3.42;1.33;;;12.60;99.90;;;;;;5055958;28;20112;-76
2022/06/04 03:27:04;;;;;;;4.97;1.30;;;12.60;99.90;;;;;;5056267;28;20060;-76
2022/06/04 03:29:30;;;;;;;3.47;0.98;;;12.50;99.90;;;;;;5055923;28;20082;-75
2022/06/04 03:31:56;;;;;;;3.88;1.60;;;12.50;99.90;;;;;;5056095;28;20036;-76
2022/06/04 03:34:22;;;;;;;4.05;1.10;;;12.40;99.90;;;;;;5055391;28;20103;-77
2022/06/04 03:36:47;;;;;;;3.95;1.10;;;12.40;99.90;;;;;;5055581;28;20051;-77
2022/06/04 03:39:13;;;;;;;6.78;1.70;;;12.50;99.90;;;;;;5054162;28;20538;-77
2022/06/04 03:41:39;;;;;;;3.65;0.85;;;12.40;99.90;;;;;;5054149;28;20102;-77
2022/06/04 03:44:05;;;;;;;7.90;1.20;;;12.40;99.90;;;;;;5053840;28;20028;-76
2022/06/04 03:46:30;;;;;;;2.97;0.90;;;12.40;99.90;;;;;;5055296;28;20029;-77
2022/06/04 03:48:57;;;;;;;1.75;0.73;;;12.40;99.90;;;;;;5055431;28;20025;-77
2022/06/04 03:51:25;;;;;;;6.22;1.52;;;12.40;99.90;;;;;;5055155;28;20373;-76
2022/06/04 03:53:50;;;;;;;2.78;0.57;;;12.40;99.90;;;;;;5055645;28;20035;-77
2022/06/04 03:56:17;;;;;;;3.60;0.88;;;12.40;99.90;;;;;;5055086;28;20112;-76
2022/06/04 03:58:43;;;;;;;4.15;1.08;;;12.90;99.90;;;;;;5053734;28;20480;-77
2022/06/04 04:01:28;;;;;;;8.50;0.80;;;12.50;99.90;;;;;;5055439;28;20021;-77
2022/06/04 04:03:55;;;;;;;2.75;0.95;;;12.50;99.90;;;;;;5053636;28;20025;-77
2022/06/04 04:06:28;;;;;;;3.08;1.30;;;12.50;99.90;;;;;;5055148;28;20361;-77
2022/06/04 04:08:54;;;;;;;3.47;1.23;;;12.60;99.90;;;;;;5054969;28;20082;-77
2022/06/04 04:11:23;;;;;;;3.33;0.80;;;12.60;99.90;;;;;;5054833;28;20060;-75
2022/06/04 04:13:51;;;;;;;4.78;0.98;;;12.60;99.90;;;;;;5054642;28;20104;-77
2022/06/04 04:16:17;;;;;;;4.72;1.33;;;12.60;99.90;;;;;;5053366;28;20502;-76
2022/06/04 04:18:43;;;;;;;6.13;1.20;;;12.60;99.90;;;;;;5054494;28;20055;-77
2022/06/04 04:21:12;;;;;;;4.78;1.58;;;12.70;99.90;;;;;;5054512;28;20096;-76
2022/06/04 04:23:38;;;;;;;4.97;1.40;;;12.70;99.90;;;;;;5054631;28;20029;-76
2022/06/04 04:26:06;;;;;;;4.35;1.30;;;12.70;99.90;;;;;;5053139;28;20028;-77
2022/06/04 04:28:32;;;;;;;3.83;1.80;;;12.70;99.90;;;;;;5053297;28;20024;-77
2022/06/04 04:30:57;;;;;;;4.30;1.52;;;12.70;99.90;;;;;;5052860;28;20041;-77
2022/06/04 04:33:23;;;;;;;4.78;1.42;;;12.90;99.90;;;;;;5055020;28;20155;-77
2022/06/04 04:35:49;;;;;;;12.63;1.77;;;13.30;99.90;;;;;;5056745;28;20025;-78
2022/06/04 04:38:18;;;;;;;3.75;0.85;;;12.80;99.90;;;;;;5056155;28;20468;-79
2022/06/04 04:40:44;;;;;;;2.35;1.30;;;12.70;99.90;;;;;;5056137;28;20014;-79
2022/06/04 04:43:10;;;;;;;5.57;1.77;;;12.90;99.90;;;;;;5055285;28;20082;-78
2022/06/04 04:45:36;;;;;;;7.47;2.22;;;13.00;99.90;;;;;;5054179;28;20025;-77
2022/06/04 04:48:01;;;;;;;5.05;1.13;;;12.90;99.90;;;;;;5054653;28;20028;-78
2022/06/04 04:50:37;;;;;;;5.40;1.35;;;13.10;99.90;;;;;;5055075;28;20025;-79
2022/06/04 04:53:06;;;;;;;3.65;1.35;;;13.10;99.90;;;;;;5054927;28;20541;-78
2022/06/04 04:55:33;;;;;;;8.13;1.40;;;13.60;99.90;;;;;;5054254;28;20021;-78
2022/06/04 04:58:00;;;;;;;8.48;2.17;;;14.70;99.90;;;;;;5052829;28;20154;-78
2022/06/04 05:00:25;;;;;;;5.38;1.10;;;13.30;99.90;;;;;;5053935;28;20067;-78
2022/06/04 05:02:51;;;;;;;8.38;1.30;;;13.30;99.90;;;;;;5052876;28;20049;-78
2022/06/04 05:05:17;;;;;;;6.05;1.85;;;13.30;99.90;;;;;;5054338;28;20017;-78
2022/06/04 05:07:44;;;;;;;4.15;1.35;;;13.30;99.90;;;;;;5053879;28;20036;-78
2022/06/04 05:10:11;;;;;;;6.35;1.42;;;13.30;99.90;;;;;;5052781;28;20033;-78
2022/06/04 05:12:37;;;;;;;7.18;1.80;;;13.30;99.90;;;;;;5053050;28;20064;-78
2022/06/04 05:15:03;;;;;;;4.47;1.10;;;13.30;99.90;;;;;;5052579;28;20098;-78
2022/06/04 05:17:29;;;;;;;4.55;1.98;;;13.30;99.90;;;;;;5054362;28;20029;-78
2022/06/04 05:19:54;;;;;;;6.53;1.25;;;13.30;99.90;;;;;;5054263;28;20055;-78
2022/06/04 05:22:20;;;;;;;7.32;2.30;;;13.30;99.90;;;;;;5052797;28;20475;-78
2022/06/04 05:24:46;;;;;;;4.70;1.45;;;13.30;99.90;;;;;;5053953;28;20087;-78
2022/06/04 05:27:12;;;;;;;4.60;1.40;;;13.30;99.90;;;;;;5054568;28;20123;-78
2022/06/04 05:29:37;;;;;;;5.07;1.35;;;13.30;99.90;;;;;;5052272;28;20037;-78
2022/06/04 05:32:04;;;;;;;8.52;2.15;;;13.30;99.90;;;;;;5054070;28;20467;-77
2022/06/04 05:34:31;;;;;;;3.17;1.33;;;13.30;99.90;;;;;;5052211;28;20128;-78
2022/06/04 05:36:57;;;;;;;7.13;1.58;;;13.40;99.90;;;;;;5053546;28;20022;-77
2022/06/04 05:39:23;;;;;;;5.07;1.70;;;13.40;99.90;;;;;;5053351;28;20029;-77
2022/06/04 05:41:50;;;;;;;6.07;2.03;;;13.50;99.90;;;;;;5053263;28;20364;-78
2022/06/04 05:44:16;;;;;;;8.38;1.83;;;13.60;99.90;;;;;;5053478;28;20439;-79
2022/06/04 05:46:42;;;;;;;3.13;1.73;;;13.70;99.90;;;;;;5057553;28;20387;-79
2022/06/04 05:49:12;;;;;;;4.18;1.33;;;13.80;99.90;;;;;;5057638;28;20029;-79
2022/06/04 05:51:40;;;;;;;7.10;1.52;;;13.90;99.90;;;;;;5055229;28;20446;-78
2022/06/04 05:54:06;;;;;;;5.05;1.88;;;14.00;99.90;;;;;;5052477;28;20018;-79
2022/06/04 05:56:35;;;;;;;7.10;1.98;;;14.00;99.90;;;;;;5053676;28;20025;-78
2022/06/04 05:59:02;;;;;;;4.13;1.15;;;14.10;99.90;;;;;;5052498;28;20021;-78
2022/06/04 06:01:31;;;;;;;3.58;1.45;;;14.10;99.90;;;;;;5054539;28;20017;-79
2022/06/04 06:03:57;;;;;;;5.07;1.52;;;14.30;99.90;;;;;;5055134;28;20024;-79
2022/06/04 06:06:27;;;;;;;7.82;2.00;;;14.20;99.90;;;;;;5056025;28;20167;-78
2022/06/04 06:08:54;;;;;;;5.75;1.25;;;14.40;99.90;;;;;;5056263;28;20017;-78
2022/06/04 06:11:21;;;;;;;6.00;2.05;;;14.40;99.90;;;;;;5057765;28;20053;-78
2022/06/04 06:13:51;;;;;;;3.78;1.42;;;14.50;99.90;;;;;;5055952;28;20075;-78
2022/06/04 06:16:28;;;;;;;3.15;1.05;;;14.50;99.90;;;;;;5057691;28;20027;-78
2022/06/04 06:18:58;;;;;;;5.45;1.35;;;14.50;99.90;;;;;;5057411;28;20017;-78
2022/06/04 06:21:29;;;;;;;5.60;1.70;;;14.70;99.90;;;;;;5059867;28;20017;-79
2022/06/04 06:23:55;;;;;;;3.67;1.55;;;14.80;99.90;;;;;;5059622;28;20025;-79
2022/06/04 06:26:23;;;;;;;4.68;1.10;;;15.20;99.90;;;;;;5058248;28;20028;-78
2022/06/04 06:28:49;;;;;;;4.20;1.00;;;15.20;99.90;;;;;;5059416;28;20021;-79
2022/06/04 06:31:19;;;;;;;5.45;0.98;;;15.30;99.90;;;;;;5059676;28;20040;-79
2022/06/04 06:33:45;;;;;;;15.85;1.67;;;15.70;99.90;;;;;;5059853;28;20021;-79
2022/06/04 06:36:13;;;;;;;6.57;1.65;;;15.90;99.90;;;;;;5058677;28;20017;-79
2022/06/04 06:38:39;;;;;;;4.57;1.57;;;15.40;99.90;;;;;;5062313;28;20020;-79
2022/06/04 06:41:06;;;;;;;3.65;1.00;;;15.50;99.90;;;;;;5061194;28;20302;-79
2022/06/04 06:43:38;;;;;;;5.20;1.60;;;15.70;99.90;;;;;;5061940;28;20021;-79
2022/06/04 06:46:09;;;;;;;5.30;0.88;;;15.70;99.90;;;;;;5059676;28;20115;-79
2022/06/04 06:48:37;;;;;;;7.47;1.45;;;15.70;99.90;;;;;;5060967;28;20029;-79
2022/06/04 06:51:06;;;;;;;4.63;1.25;;;15.80;99.90;;;;;;5060392;28;20029;-79
2022/06/04 06:53:32;;;;;;;6.07;1.23;;;15.80;99.90;;;;;;5059193;28;20455;-79
2022/06/04 06:55:58;;;;;;;2.58;1.40;;;15.80;99.90;;;;;;5059039;28;20059;-77
2022/06/04 06:58:24;;;;;;;4.15;0.90;;;15.90;99.90;;;;;;5057259;28;20013;-77
2022/06/04 07:00:51;;;;;;;4.18;0.63;;;16.00;99.90;;;;;;5057589;28;20158;-77
2022/06/04 07:03:18;;;;;;;2.83;0.82;;;16.10;99.90;;;;;;5062940;28;20021;-79
2022/06/04 07:05:43;;;;;;;5.05;0.88;;;16.20;99.90;;;;;;5071323;28;20040;-79
2022/06/04 07:08:09;;;;;;;7.57;1.35;;;17.30;99.90;;;;;;5071518;28;20025;-79
2022/06/04 07:10:34;;;;;;;4.60;1.15;;;16.50;99.90;;;;;;5072129;28;20032;-79
2022/06/04 07:13:00;;;;;;;2.97;1.15;;;17.50;99.90;;;;;;5070647;28;20021;-78
2022/06/04 07:15:25;;;;;;;3.45;1.13;;;16.70;99.90;;;;;;5069421;28;20025;-78
2022/06/04 07:17:51;;;;;;;4.90;1.10;;;16.80;99.90;;;;;;5067073;28;20047;-79
2022/06/04 07:20:18;;;;;;;2.88;0.47;;;16.80;99.90;;;;;;5069475;28;20024;-79
2022/06/04 07:22:44;;;;;;;3.92;0.75;;;16.80;99.90;;;;;;5069681;28;20107;-80
2022/06/04 07:25:14;;;;;;;4.15;1.02;;;16.90;99.90;;;;;;5070739;28;20033;-79
2022/06/04 07:27:40;;;;;;;4.03;0.73;;;17.30;99.90;;;;;;5067041;28;20385;-78
2022/06/04 07:30:06;;;;;;;3.85;0.52;;;16.90;99.90;;;;;;5060297;28;20033;-77
2022/06/04 07:32:32;;;;;;;7.45;0.98;;;16.80;99.90;;;;;;5061544;28;20036;-77
2022/06/04 07:34:58;;;;;;;1.85;0.50;;;16.80;99.90;;;;;;5055000;28;20086;-77
2022/06/04 07:37:23;;;;;;;2.70;0.80;;;16.80;99.90;;;;;;5054861;28;20036;-77
2022/06/04 07:39:49;;;;;;;6.10;1.30;;;16.80;99.90;;;;;;5055106;28;20021;-77
2022/06/04 07:42:14;;;;;;;2.35;1.15;;;16.80;99.90;;;;;;5056623;28;20100;-75
2022/06/04 07:44:40;;;;;;;4.00;0.80;;;16.90;99.90;;;;;;5055636;28;20059;-75
2022/06/04 07:47:05;;;;;;;6.47;1.02;;;16.80;99.90;;;;;;5054638;28;20021;-76
2022/06/04 07:49:31;;;;;;;3.97;0.63;;;16.80;99.90;;;;;;5056346;28;20049;-76
2022/06/04 07:51:56;;;;;;;4.05;0.95;;;16.90;99.90;;;;;;5054769;28;20059;-77
2022/06/04 07:54:22;;;;;;;4.68;1.08;;;17.00;99.90;;;;;;5055715;28;20025;-75
2022/06/04 07:56:48;;;;;;;4.38;0.75;;;17.00;99.90;;;;;;5054286;28;20455;-76
2022/06/04 07:59:16;;;;;;;4.63;1.23;;;17.10;99.90;;;;;;5055690;28;20098;-76
2022/06/04 08:01:42;;;;;;;2.72;1.02;;;17.10;99.90;;;;;;5054684;28;20017;-77
2022/06/04 08:04:10;;;;;;;1.73;0.40;;;17.40;99.90;;;;;;5054344;28;20020;-76
2022/06/04 08:06:36;;;;;;;5.13;1.10;;;17.50;99.90;;;;;;5055826;28;20031;-76
2022/06/04 08:09:01;;;;;;;2.45;0.95;;;17.60;99.90;;;;;;5056384;28;20471;-76
2022/06/04 08:11:30;;;;;;;4.55;0.77;;;17.60;99.90;;;;;;5055356;28;20017;-76
2022/06/04 08:14:26;;;;;;;5.93;0.68;;;17.70;99.90;;;;;;5055316;28;20083;-75
2022/06/04 08:16:56;;;;;;;3.35;0.60;;;17.70;99.90;;;;;;5047613;28;20037;-78
2022/06/04 08:19:23;;;;;;;4.03;0.60;;;17.90;99.90;;;;;;5056987;28;20025;-74
2022/06/04 08:21:50;;;;;;;2.15;0.80;;;18.00;99.90;;;;;;5053328;28;20112;-74
2022/06/04 08:24:16;;;;;;;2.22;1.02;;;18.30;99.90;;;;;;5053413;28;20041;-76
2022/06/04 08:26:45;;;;;;;6.20;1.27;;;18.50;99.90;;;;;;5054643;28;20018;-76
2022/06/04 08:29:11;;;;;;;;;;;18.70;99.90;;;;;;5054572;28;20021;-78
2022/06/04 08:31:37;;;;;;;2.30;0.85;;;18.90;99.90;;;;;;5054403;28;19920;-75
2022/06/04 08:34:03;;;;;;;1.98;0.40;;;19.20;99.90;;;;;;5054682;28;20365;-76
2022/06/04 08:36:29;;;;;;;1.77;0.55;;;19.50;99.90;;;;;;5054352;28;20021;-76
2022/06/04 08:38:55;;;;;;;2.83;0.68;;;19.60;99.90;;;;;;5054425;28;20028;-76
2022/06/04 08:41:45;;;;;;;3.72;0.93;;;19.60;99.90;;;;;;5054209;28;20017;-76
2022/06/04 08:44:26;;;;;;;5.35;1.45;;;19.80;99.90;;;;;;5054848;28;20040;-76
2022/06/04 08:46:54;;;;;;;1.88;0.85;;;20.10;99.90;;;;;;5054112;28;20036;-74
2022/06/04 08:49:36;;;;;;;1.25;0.52;;;20.10;99.90;;;;;;5053622;28;20120;-75
2022/06/04 08:52:10;;;;;;;1.77;0.70;;;19.90;99.90;;;;;;5055718;28;20107;-75
2022/06/04 08:57:33;;;;;;;2.63;0.45;;;19.60;99.90;;;;;;5054024;28;20079;-76
2022/06/04 09:00:13;;;;;;;3.67;0.68;;;19.40;99.90;;;;;;5052677;28;20084;-76
2022/06/04 09:03:13;;;;;;;2.67;0.95;;;19.40;99.90;;;;;;5071052;28;20387;-76
2022/06/04 09:06:10;;;;;;;2.95;0.77;;;19.60;99.90;;;;;;5058764;28;20427;-75
2022/06/04 09:09:08;;;;;;;5.38;0.88;;;19.80;99.90;;;;;;5049887;28;20025;-75
2022/06/04 09:11:49;;;;;;;2.70;0.55;;;19.80;99.90;;;;;;5074586;28;20073;-75
2022/06/04 09:14:43;;;;;;;1.75;0.93;;;19.80;99.90;;;;;;5050298;28;20382;-75
2022/06/04 09:17:36;;;;;;;3.80;0.70;;;19.70;99.90;;;;;;5032638;28;20041;-75
2022/06/04 09:20:08;;;;;;;2.50;0.55;;;19.70;99.90;;;;;;5050036;28;20410;-76
2022/06/04 09:22:42;;;;;;;2.00;0.90;;;19.60;99.90;;;;;;5039750;28;20075;-75
2022/06/04 09:25:22;;;;;;;3.22;0.98;;;19.50;99.90;;;;;;5047889;28;20052;-75
2022/06/04 09:27:57;;;;;;;2.25;0.60;;;19.20;99.90;;;;;;5047543;28;20474;-75
2022/06/04 09:30:49;;;;;;;5.57;1.00;;;19.10;99.90;;;;;;5048608;28;20064;-76
2022/06/04 09:33:20;;;;;;;3.80;0.50;;;19.20;99.90;;;;;;5048416;28;20528;-75
2022/06/04 09:35:46;;;;;;;2.55;0.60;;;19.40;99.90;;;;;;5047103;28;20048;-75
2022/06/04 09:38:31;;;;;;;2.50;0.90;;;19.60;99.90;;;;;;5047404;28;21450;-76
2022/06/04 09:41:06;;;;;;;2.60;1.05;;;19.90;99.90;;;;;;5049706;28;20502;-75
2022/06/04 09:43:33;;;;;;;2.13;0.45;;;20.20;99.90;;;;;;5049900;28;20559;-75
2022/06/04 09:46:00;;;;;;;4.43;0.63;;;20.50;99.90;;;;;;5049788;28;20107;-76
2022/06/04 09:48:30;;;;;;;3.45;0.47;;;20.60;99.90;;;;;;5049721;28;20006;-75
2022/06/04 09:51:00;;;;;;;2.70;0.30;;;20.60;98.80;;;;;;5049564;28;20033;-75
2022/06/04 09:53:32;;;;;;;3.78;0.40;;;20.60;98.50;;;;;;5049545;28;20419;-76
2022/06/04 09:56:13;;;;;;;2.30;0.30;;;20.70;98.10;;;;;;5049373;28;20065;-76
2022/06/04 09:58:46;;;;;;;2.22;0.30;;;20.80;96.90;;;;;;5050198;28;20108;-76
2022/06/04 10:01:14;;;;;;;1.17;0.43;;;20.90;96.80;;;;;;5048795;28;20423;-76
2022/06/04 10:03:40;;;;;;;1.42;0.75;;;21.00;95.70;;;;;;5049299;28;20383;-76
2022/06/04 10:06:13;;;;;;;1.48;0.30;;;21.00;96.20;;;;;;5049575;28;20437;-76
2022/06/04 10:11:36;;;;;;;1.13;0.10;;;21.20;97.10;;;;;;5050377;28;20135;-76
2022/06/04 10:14:03;;;;;;;1.52;0.40;;;21.30;96.10;;;;;;5036540;28;20057;-76
2022/06/04 10:16:39;;;;;;;0.55;0.20;;;21.40;93.90;;;;;;5036046;28;20025;-76
2022/06/04 10:19:17;;;;;;;2.30;0.75;;;21.40;94.80;;;;;;5036001;28;20062;-76
2022/06/04 10:21:45;;;;;;;1.03;0.17;;;21.50;96.40;;;;;;5035986;28;20087;-76
2022/06/04 10:24:26;;;;;;;1.33;0.70;;;21.70;93.90;;;;;;5033793;28;20509;-76
2022/06/04 10:27:01;;;;;;;2.72;0.73;;;21.60;94.40;;;;;;5020691;28;20030;-76
2022/06/04 10:29:41;;;;;;;3.80;0.30;;;21.60;93.30;;;;;;5035531;28;20056;-76
2022/06/04 10:32:25;;;;;;;1.88;0.20;;;21.80;94.20;;;;;;5017115;28;20041;-76
2022/06/04 10:35:31;;;;;;;1.83;0.40;;;22.00;92.50;;;;;;5016282;28;20113;-76
2022/06/04 10:38:18;;;;;;;1.20;0.20;;;22.10;92.60;;;;;;5028373;28;20407;-76
2022/06/04 10:40:47;;;;;;;2.17;0.30;;;22.30;92.30;;;;;;5034105;28;20080;-76
2022/06/04 10:43:30;;;;;;;;;;;22.40;92.00;;;;;;5035674;28;20036;-76
2022/06/04 10:46:02;;;;;;;3.40;0.55;;;22.50;90.40;;;;;;5035131;28;19909;-76
2022/06/04 10:48:33;;;;;;;2.95;0.20;;;22.60;89.10;;;;;;5035108;28;20031;-76
2022/06/04 10:51:26;;;;;;;3.22;0.65;;;22.70;90.70;;;;;;5035295;28;20037;-76
2022/06/04 10:54:20;;;;;;;3.70;0.43;;;22.80;88.00;;;;;;5035026;28;20022;-76
2022/06/04 10:56:54;;;;;;;1.42;0.50;;;22.80;87.00;;;;;;5016828;28;20614;-76
2022/06/04 10:59:33;;;;;;;0.60;0.45;;;22.90;86.50;;;;;;5033776;28;20030;-76
2022/06/04 11:02:27;;;;;;;1.65;0.40;;;22.80;88.30;;;;;;5033587;28;20029;-76
2022/06/04 11:05:29;;;;;;;0.70;0.20;;;22.80;83.00;;;;;;5035054;28;20037;-76
2022/06/04 11:08:02;;;;;;;2.83;0.40;;;22.70;88.60;;;;;;5035185;28;20390;-76
2022/06/04 11:10:37;;;;;;;0.70;0.17;;;22.70;89.20;;;;;;5033231;28;20025;-76
2022/06/04 11:13:24;;;;;;;2.92;0.22;;;22.70;84.00;;;;;;5034379;28;20048;-76
2022/06/04 11:16:17;;;;;;;3.22;0.43;;;22.70;89.30;;;;;;5033841;28;20018;-76
2022/06/04 11:19:06;;;;;;;0.82;0.32;;;22.90;88.20;;;;;;5034482;28;20044;-76
2022/06/04 11:21:51;;;;;;;3.13;0.45;;;23.10;83.90;;;;;;5014088;28;20030;-76
2022/06/04 11:24:30;;;;;;;2.65;0.30;;;23.20;82.80;;;;;;5028575;28;20026;-76
2022/06/04 11:27:04;;;;;;;0.70;0.15;;;23.30;79.90;;;;;;5033760;28;20056;-76
2022/06/04 11:29:31;;;;;;;1.20;0.10;;;23.20;78.90;;;;;;5034365;28;20018;-76
2022/06/04 11:32:15;;;;;;;0.93;0.40;;;23.30;80.50;;;;;;5034820;28;20025;-76
2022/06/04 11:35:03;;;;;;;3.92;0.35;;;23.40;80.20;;;;;;5033389;28;20120;-76
2022/06/04 11:37:47;;;;;;;1.30;0.10;;;23.40;78.10;;;;;;5032772;28;20053;-76
2022/06/04 11:40:38;;;;;;;2.88;0.20;;;23.50;76.90;;;;;;5034429;28;20100;-76
2022/06/04 11:43:11;;;;;;;1.58;0.40;;;23.50;81.10;;;;;;5020897;28;20498;-76
2022/06/04 11:46:00;;;;;;;1.85;0.63;;;23.60;77.70;;;;;;5032202;28;20029;-76
2022/06/04 11:48:28;;;;;;;;;;;23.60;76.70;;;;;;5033558;28;20487;-76
2022/06/04 11:50:57;;;;;;;;;;;23.50;79.40;;;;;;5034807;28;19909;-76
2022/06/04 11:53:31;;;;;;;2.50;0.10;;;23.50;78.80;;;;;;5033694;28;19909;-76
2022/06/04 11:56:18;;;;;;;2.20;0.20;;;23.60;81.00;;;;;;5033534;28;20036;-76
2022/06/04 11:58:47;;;;;;;2.45;0.38;;;23.40;77.80;;;;;;5028123;28;20159;-77
2022/06/04 12:01:17;;;;;;;1.95;0.40;;;23.20;78.40;;;;;;5046005;28;20086;-76
2022/06/04 12:03:56;;;;;;;1.95;0.10;;;23.10;77.50;;;;;;5037377;28;20024;-77
2022/06/04 12:06:33;;;;;;;0.88;0.28;;;23.10;78.70;;;;;;5034485;28;20059;-77
2022/06/04 12:09:18;;;;;;;1.23;0.30;;;22.90;79.90;;;;;;5033762;28;20033;-77
2022/06/04 12:11:56;;;;;;;6.32;0.50;;;22.80;81.40;;;;;;5033497;28;20108;-77
2022/06/04 12:14:46;;;;;;;7.45;0.20;;;22.80;82.80;;;;;;5033595;28;20022;-77
2022/06/04 12:17:15;;;;;;;1.55;0.80;;;22.70;83.10;;;;;;5033765;28;20084;-77
2022/06/04 12:25:43;;;;;;;2.20;0.40;;;22.60;79.30;;;;;;5034795;28;20490;-77
2022/06/04 12:28:26;;;;;;;3.90;0.68;;;22.40;80.00;;;;;;5033310;28;20418;-77
2022/06/04 12:30:53;;;;;;;1.25;0.20;;;22.30;81.30;;;;;;5035083;28;20026;-77
2022/06/04 12:33:33;;;;;;;3.10;0.43;;;22.20;85.30;;;;;;5034713;28;20029;-77
2022/06/04 12:36:22;;;;;;;1.75;0.57;;;21.50;85.00;;;;;;5034489;28;20025;-78
2022/06/04 12:39:17;;;;;;;1.30;0.50;;;22.10;86.30;;;;;;5034608;28;20025;-78
2022/06/04 12:41:49;;;;;;;1.30;0.40;;;22.00;86.80;;;;;;5035675;28;20022;-79
2022/06/04 12:44:28;;;;;;;2.78;0.50;;;21.90;87.30;;;;;;5037697;28;20147;-77
2022/06/04 12:46:55;;;;;;;2.05;0.65;;;21.90;86.60;;;;;;5034893;28;20545;-77
2022/06/04 12:49:34;;;;;;;2.22;0.13;;;21.80;87.70;;;;;;5036454;28;20375;-79
2022/06/04 12:52:24;;;;;;;1.05;0.10;;;21.70;89.60;;;;;;5036087;28;20035;-78
2022/06/04 12:55:07;;;;;;;2.05;0.47;;;21.70;90.50;;;;;;5033790;28;20108;-75
2022/06/04 12:57:47;;;;;;;5.95;0.60;;;21.80;88.80;;;;;;5033370;28;20049;-75
2022/06/04 13:00:24;;;;;;;1.90;0.73;;;21.80;90.10;;;;;;5032069;28;20116;-76
2022/06/04 13:03:08;;;;;;;3.00;0.65;;;21.90;90.20;;;;;;5033269;28;20029;-76
2022/06/04 13:05:54;;;;;;;1.27;0.30;;;22.10;89.30;;;;;;5033338;28;20026;-76
2022/06/04 13:08:20;;;;;;;2.80;0.40;;;22.30;90.10;;;;;;5033226;28;20025;-76
2022/06/04 13:10:57;;;;;;;1.08;0.38;;;22.80;89.20;;;;;;5033181;28;20024;-76
2022/06/04 13:13:56;;;;;;;4.50;0.85;;;23.60;87.50;;;;;;5033649;28;20161;-76
2022/06/04 13:16:29;;;;;;;2.25;0.38;;;24.30;87.90;;;;;;5033006;28;20018;-76
2022/06/04 13:19:07;;;;;;;1.92;0.20;;;25.10;81.30;;;;;;5031961;28;20467;-76
2022/06/04 13:21:38;;;;;;;1.77;0.50;;;25.90;74.60;;;;;;5033014;28;20109;-76
2022/06/04 13:24:09;;;;;;;2.42;0.32;;;26.70;72.60;;;;;;5033136;28;20018;-76
2022/06/04 13:26:50;;;;;;;1.05;0.30;;;27.20;66.80;;;;;;5032006;28;20022;-76
2022/06/04 13:29:23;;;;;;;2.15;0.38;;;27.80;66.50;;;;;;5033112;28;20040;-76
2022/06/04 13:31:57;;;;;;;1.60;0.40;;;27.90;63.90;;;;;;5097581;23;20045;-87
2022/06/04 13:34:26;;;;;;;1.02;0.20;;;28.10;63.20;;;;;;5056630;28;20152;-85
2022/06/04 13:36:59;;;;;;;4.40;0.38;;;28.20;60.30;;;;;;5056679;28;20009;-85